Time;durP1;ratioP1;P1;durP2;ratioP2;P2;SDS_P1;SDS_P2;PMS_P1;PMS_P2;Temp;Humidity;BMP_temperature;BMP_pressure;BME280_temperature;BME280_humidity;BME280_pressure;Samples;Min_cycle;Max_cycle;Signal;HPM_P1;HPM_P2
2022/05/02 00:00:33;;;;;;;;;;;;;;;;;;5114922;28;20367;-82
2022/05/02 00:02:59;;;;;;;;;;;;;;;;;;5147963;27;20061;-82
2022/05/02 00:05:26;;;;;;;;;;;;;;;;;;5114672;28;20014;-83
2022/05/02 00:07:51;;;;;;;;;;;;;;;;;;5114969;28;20287;-81
2022/05/02 00:10:17;;;;;;;;;;;;;;;;;;5116007;28;19919;-81
2022/05/02 00:12:43;;;;;;;;;;;;;;;;;;5115087;28;20379;-78
2022/05/02 00:15:09;;;;;;;;;;;;;;;;;;5130827;28;19987;-77
2022/05/02 00:20:18;;;;;;;;;;;;;;;;;;5116259;28;19922;-81
2022/05/02 00:22:45;;;;;;;;;;;;;;;;;;5113884;28;19998;-82
2022/05/02 00:25:10;;;;;;;;;;;;;;;;;;5114584;28;19968;-82
2022/05/02 00:27:38;;;;;;;;;;;;;;;;;;5147506;27;19915;-82
2022/05/02 00:30:03;;;;;;;;;;;;;;;;;;5147597;27;19911;-81
2022/05/02 00:32:29;;;;;;;;;;;;;;;;;;5114405;28;20278;-80
2022/05/02 00:34:54;;;;;;;;;;;;;;;;;;5113217;28;19912;-78
2022/05/02 00:37:20;;;;;;;;;;;;;;;;;;5146540;27;20372;-80
2022/05/02 00:39:45;;;;;;;;;;;;;;;;;;5114516;28;20018;-81
2022/05/02 00:42:12;;;;;;;;;;;;;;;;;;5114748;28;19919;-82
2022/05/02 00:44:40;;;;;;;;;;;;;;;;;;5115016;28;19965;-82
2022/05/02 00:47:06;;;;;;;;;;;;;;;;;;5114446;28;19949;-81
2022/05/02 00:49:31;;;;;;;;;;;;;;;;;;5112756;28;20418;-80
2022/05/02 00:51:57;;;;;;;;;;;;;;;;;;5112708;28;19916;-81
2022/05/02 00:54:22;;;;;;;;;;;;;;;;;;5114138;28;20279;-81
2022/05/02 00:56:48;;;;;;;;;;;;;;;;;;5114074;28;19916;-81
2022/05/02 00:59:14;;;;;;;;;;;;;;;;;;5112559;28;20025;-81
2022/05/02 01:01:40;;;;;;;;;;;;;;;;;;5113808;28;20387;-81
2022/05/02 01:04:06;;;;;;;;;;;;;;;;;;5112685;28;20390;-82
2022/05/02 01:09:17;;;;;;;;;;;;;;;;;;5102290;28;20279;-80
2022/05/02 01:11:42;;;;;;;;;;;;;;;;;;5113993;28;19916;-79
2022/05/02 01:14:08;;;;;;;;;;;;;;;;;;5114012;28;19916;-80
2022/05/02 01:16:33;;;;;;;;;;;;;;;;;;5114034;28;19923;-81
2022/05/02 01:18:59;;;;;;;;;;;;;;;;;;5112344;28;19915;-81
2022/05/02 01:21:27;;;;;;;;;;;;;;;;;;5113727;28;19961;-82
2022/05/02 01:23:53;;;;;;;;;;;;;;;;;;5116044;28;20455;-83
2022/05/02 01:26:19;;;;;;;;;;;;;;;;;;5115599;28;20352;-80
2022/05/02 01:28:46;;;;;;;;;;;;;;;;;;5111616;28;19938;-81
2022/05/02 01:31:12;;;;;;;;;;;;;;;;;;5107490;27;19920;-81
2022/05/02 01:33:37;;;;;;;;;;;;;;;;;;5117246;28;20012;-82
2022/05/02 01:36:03;;;;;;;;;;;;;;;;;;5117671;28;19956;-81
2022/05/02 01:38:29;;;;;;;;;;;;;;;;;;5117206;27;19916;-82
2022/05/02 01:40:54;;;;;;;;;;;;;;;;;;5117834;28;19922;-82
2022/05/02 01:43:20;;;;;;;;;;;;;;;;;;5117178;28;19926;-82
2022/05/02 01:45:45;;;;;;;;;;;;;;;;;;5117654;28;19916;-83
2022/05/02 01:48:10;;;;;;;;;;;;;;;;;;5117454;28;19919;-83
2022/05/02 01:50:36;;;;;;;;;;;;;;;;;;5117478;28;19916;-82
2022/05/02 01:53:01;;;;;;;;;;;;;;;;;;5117589;28;19981;-83
2022/05/02 01:55:27;;;;;;;;;;;;;;;;;;5115869;28;19920;-82
2022/05/02 01:57:52;;;;;;;;;;;;;;;;;;5116996;28;19927;-81
2022/05/02 02:00:18;;;;;;;;;;;;;;;;;;5117322;28;19915;-82
2022/05/02 02:02:43;;;;;;;;;;;;;;;;;;5117187;28;20002;-83
2022/05/02 02:07:53;;;;;;;;;;;;;;;;;;5117061;28;19930;-82
2022/05/02 02:10:18;;;;;;;;;;;;;;;;;;5117152;28;19916;-83
2022/05/02 02:12:44;;;;;;;;;;;;;;;;;;5117063;27;19923;-82
2022/05/02 02:15:14;;;;;;;;;;;;;;;;;;5116906;28;19937;-81
2022/05/02 02:17:40;;;;;;;;;;;;;;;;;;5111612;27;19974;-82
2022/05/02 02:20:05;;;;;;;;;;;;;;;;;;5096263;28;19920;-80
2022/05/02 02:22:31;;;;;;;;;;;;;;;;;;5095098;28;20387;-81
2022/05/02 02:24:57;;;;;;;;;;;;;;;;;;5096279;28;19923;-81
2022/05/02 02:27:22;;;;;;;;;;;;;;;;;;5096136;28;19931;-80
2022/05/02 02:29:48;;;;;;;;;;;;;;;;;;5097569;28;19971;-81
2022/05/02 02:32:13;;;;;;;;;;;;;;;;;;5116614;28;19916;-81
2022/05/02 02:34:38;;;;;;;;;;;;;;;;;;5114401;28;19915;-81
2022/05/02 02:37:04;;;;;;;;;;;;;;;;;;5116645;28;19919;-81
2022/05/02 02:39:30;;;;;;;;;;;;;;;;;;5116132;28;19972;-81
2022/05/02 02:41:55;;;;;;;;;;;;;;;;;;5116613;27;20014;-82
2022/05/02 02:44:21;;;;;;;;;;;;;;;;;;5115584;28;19930;-78
2022/05/02 02:46:46;;;;;;;;;;;;;;;;;;5115771;28;19922;-80
2022/05/02 02:49:11;;;;;;;;;;;;;;;;;;5114563;28;19918;-81
2022/05/02 02:51:37;;;;;;;;;;;;;;;;;;5114949;28;19916;-81
2022/05/02 02:54:02;;;;;;;;;;;;;;;;;;5116125;28;19973;-82
2022/05/02 02:56:28;;;;;;;;;;;;;;;;;;5116415;28;20010;-80
2022/05/02 02:58:53;;;;;;;;;;;;;;;;;;5097560;28;20389;-81
2022/05/02 03:01:18;;;;;;;;;;;;;;;;;;5116054;28;20002;-81
2022/05/02 03:03:44;;;;;;;;;;;;;;;;;;5114556;28;19922;-78
2022/05/02 03:06:09;;;;;;;;;;;;;;;;;;5108981;28;19958;-78
2022/05/02 03:08:42;;;;;;;;;;;;;;;;;;5095561;28;19966;-81
2022/05/02 03:11:08;;;;;;;;;;;;;;;;;;5094195;28;19916;-78
2022/05/02 03:13:34;;;;;;;;;;;;;;;;;;5095324;28;20379;-79
2022/05/02 03:16:00;;;;;;;;;;;;;;;;;;5103652;28;19920;-79
2022/05/02 03:18:26;;;;;;;;;;;;;;;;;;5115177;28;19916;-80
2022/05/02 03:20:51;;;;;;;;;;;;;;;;;;5113708;28;19931;-80
2022/05/02 03:23:17;;;;;;;;;;;;;;;;;;5114254;28;20267;-82
2022/05/02 03:25:42;;;;;;;;;;;;;;;;;;5115443;28;20036;-81
2022/05/02 03:28:08;;;;;;;;;;;;;;;;;;5115462;28;19916;-81
2022/05/02 03:30:33;;;;;;;;;;;;;;;;;;5114529;28;19915;-82
2022/05/02 03:32:59;;;;;;;;;;;;;;;;;;5114232;28;20368;-81
2022/05/02 03:35:25;;;;;;;;;;;;;;;;;;5115158;28;19916;-80
2022/05/02 03:37:51;;;;;;;;;;;;;;;;;;5115370;28;20014;-81
2022/05/02 03:40:16;;;;;;;;;;;;;;;;;;5115017;28;20371;-80
2022/05/02 03:42:41;;;;;;;;;;;;;;;;;;5114676;28;19919;-81
2022/05/02 03:45:07;;;;;;;;;;;;;;;;;;5114835;28;19985;-76
2022/05/02 03:47:33;;;;;;;;;;;;;;;;;;5113605;28;19916;-80
2022/05/02 03:49:58;;;;;;;;;;;;;;;;;;5126828;28;19904;-76
2022/05/02 03:52:24;;;;;;;;;;;;;;;;;;5119491;28;19926;-79
2022/05/02 03:54:49;;;;;;;;;;;;;;;;;;5104961;28;20387;-81
2022/05/02 03:57:15;;;;;;;;;;;;;;;;;;5099396;28;20363;-80
2022/05/02 03:59:41;;;;;;;;;;;;;;;;;;5094201;28;20037;-80
2022/05/02 04:02:06;;;;;;;;;;;;;;;;;;5094398;28;19916;-80
2022/05/02 04:04:32;;;;;;;;;;;;;;;;;;5094180;28;19923;-79
2022/05/02 04:06:57;;;;;;;;;;;;;;;;;;5112695;28;19933;-80
2022/05/02 04:09:23;;;;;;;;;;;;;;;;;;5099409;28;20314;-80
2022/05/02 04:11:48;;;;;;;;;;;;;;;;;;5105029;28;19912;-81
2022/05/02 04:14:14;;;;;;;;;;;;;;;;;;5109281;28;20282;-79
2022/05/02 04:16:39;;;;;;;;;;;;;;;;;;5093919;28;19912;-83
2022/05/02 04:19:04;;;;;;;;;;;;;;;;;;5112297;28;19962;-80
2022/05/02 04:21:30;;;;;;;;;;;;;;;;;;5113872;28;20011;-82
2022/05/02 04:23:55;;;;;;;;;;;;;;;;;;5106700;28;19916;-80
2022/05/02 04:26:22;;;;;;;;;;;;;;;;;;5103448;28;19964;-83
2022/05/02 04:28:47;;;;;;;;;;;;;;;;;;5104580;28;19915;-84
2022/05/02 04:31:12;;;;;;;;;;;;;;;;;;5102347;28;19923;-83
2022/05/02 04:33:39;;;;;;;;;;;;;;;;;;5110479;28;20291;-82
2022/05/02 04:36:05;;;;;;;;;;;;;;;;;;5108866;28;19916;-83
2022/05/02 04:38:30;;;;;;;;;;;;;;;;;;5093458;28;20466;-82
2022/05/02 04:40:56;;;;;;;;;;;;;;;;;;5092852;28;20004;-76
2022/05/02 04:43:22;;;;;;;;;;;;;;;;;;5104937;28;20866;-79
2022/05/02 04:45:47;;;;;;;;;;;;;;;;;;5103415;28;19924;-79
2022/05/02 04:48:13;;;;;;;;;;;;;;;;;;5098331;28;19923;-81
2022/05/02 04:50:38;;;;;;;;;;;;;;;;;;5102982;28;19916;-78
2022/05/02 04:53:04;;;;;;;;;;;;;;;;;;5108016;28;19915;-79
2022/05/02 04:55:29;;;;;;;;;;;;;;;;;;5109581;28;20542;-78
2022/05/02 04:57:55;;;;;;;;;;;;;;;;;;5111843;28;19920;-81
2022/05/02 05:00:20;;;;;;;;;;;;;;;;;;5097655;28;19916;-80
2022/05/02 05:02:46;;;;;;;;;;;;;;;;;;5112501;28;20011;-79
2022/05/02 05:05:11;;;;;;;;;;;;;;;;;;5101962;28;19920;-78
2022/05/02 05:07:37;;;;;;;;;;;;;;;;;;5103051;28;19923;-81
2022/05/02 05:10:03;;;;;;;;;;;;;;;;;;5107247;28;20295;-80
2022/05/02 05:12:40;;;;;;;;;;;;;;;;;;5098891;28;20429;-78
2022/05/02 05:18:41;;;;;;;;;;;;;;;;;;5093604;28;19962;-82
2022/05/02 05:21:17;;;;;;;;;;;;;;;;;;5069924;28;19927;-78
2022/05/02 05:23:45;;;;;;;;;;;;;;;;;;5093387;28;19930;-79
2022/05/02 05:26:44;;;;;;;;;;;;;;;;;;5102234;28;20356;-79
2022/05/02 05:29:20;;;;;;;;;;;;;;;;;;5069708;28;19920;-77
2022/05/02 05:32:05;;;;;;;;;;;;;;;;;;5093373;28;19916;-78
2022/05/02 05:35:06;;;;;;;;;;;;;;;;;;5093509;28;20371;-78
2022/05/02 05:37:31;;;;;;;;;;;;;;;;;;5049880;28;19925;-78
2022/05/02 05:40:17;;;;;;;;;;;;;;;;;;5043226;28;19936;-77
2022/05/02 05:43:03;;;;;;;;;;;;;;;;;;5045259;28;19920;-78
2022/05/02 05:45:41;;;;;;;;;;;;;;;;;;5039828;28;20589;-78
2022/05/02 05:48:09;;;;;;;;;;;;;;;;;;5014585;28;19917;-80
2022/05/02 05:50:41;;;;;;;;;;;;;;;;;;5046731;28;19920;-79
2022/05/02 05:53:09;;;;;;;;;;;;;;;;;;5051226;28;20439;-77
2022/05/02 05:55:43;;;;;;;;;;;;;;;;;;5050729;28;20442;-76
2022/05/02 05:58:27;;;;;;;;;;;;;;;;;;5051023;28;19916;-80
2022/05/02 06:00:58;;;;;;;;;;;;;;;;;;5050247;28;19912;-80
2022/05/02 06:03:24;;;;;;;;;;;;;;;;;;5050548;28;19917;-81
2022/05/02 06:05:50;;;;;;;;;;;;;;;;;;5045550;28;20340;-79
2022/05/02 06:08:18;;;;;;;;;;;;;;;;;;5039234;28;20340;-78
2022/05/02 06:10:45;;;;;;;;;;;;;;;;;;5059764;28;19969;-79
2022/05/02 06:13:14;;;;;;;;;;;;;;;;;;5115643;28;20014;-78
2022/05/02 06:18:28;;;;;;;;;;;;;;;;;;5098348;28;20379;-80
2022/05/02 06:20:54;;;;;;;;;;;;;;;;;;5109130;28;19992;-78
2022/05/02 06:23:20;;;;;;;;;;;;;;;;;;5106256;28;20375;-80
2022/05/02 06:25:48;;;;;;;;;;;;;;;;;;5110180;28;19915;-79
2022/05/02 06:28:14;;;;;;;;;;;;;;;;;;5111854;28;20010;-80
2022/05/02 06:30:42;;;;;;;;;;;;;;;;;;5113402;28;19916;-81
2022/05/02 06:33:11;;;;;;;;;;;;;;;;;;5107065;28;19962;-83
2022/05/02 06:35:56;;;;;;;;;;;;;;;;;;5095846;28;20015;-78
2022/05/02 06:38:30;;;;;;;;;;;;;;;;;;5098050;28;19926;-79
2022/05/02 06:41:18;;;;;;;;;;;;;;;;;;5098840;28;19923;-81
2022/05/02 06:44:02;;;;;;;;;;;;;;;;;;5101275;28;19920;-78
2022/05/02 06:46:38;;;;;;;;;;;;;;;;;;5096324;27;19995;-80
2022/05/02 06:49:04;;;;;;;;;;;;;;;;;;5112246;28;20008;-81
2022/05/02 06:51:39;;;;;;;;;;;;;;;;;;5102540;28;19916;-81
2022/05/02 06:54:11;;;;;;;;;;;;;;;;;;5107540;28;20420;-78
2022/05/02 06:56:48;;;;;;;;;;;;;;;;;;5149527;27;20307;-78
2022/05/02 06:59:17;;;;;;;;;;;;;;;;;;5115946;28;19965;-77
2022/05/02 07:01:50;;;;;;;;;;;;;;;;;;5115304;28;19915;-79
2022/05/02 07:04:16;;;;;;;;;;;;;;;;;;5115880;28;20319;-82
2022/05/02 07:06:59;;;;;;;;;;;;;;;;;;5115931;28;19919;-80
2022/05/02 07:09:30;;;;;;;;;;;;;;;;;;5113642;28;20371;-82
2022/05/02 07:11:56;;;;;;;;;;;;;;;;;;5103724;28;20368;-80
2022/05/02 07:14:25;;;;;;;;;;;;;;;;;;5116171;28;19920;-81
2022/05/02 07:16:53;;;;;;;;;;;;;;;;;;5116272;28;19916;-78
2022/05/02 07:19:37;;;;;;;;;;;;;;;;;;5116281;28;20412;-83
2022/05/02 07:22:04;;;;;;;;;;;;;;;;;;5115954;28;19923;-83
2022/05/02 07:24:42;;;;;;;;;;;;;;;;;;5116338;28;19916;-81
2022/05/02 07:27:09;;;;;;;;;;;;;;;;;;5117911;28;19916;-87
2022/05/02 07:29:34;;;;;;;;;;;;;;;;;;5116954;28;20364;-81
2022/05/02 07:32:00;;;;;;;;;;;;;;;;;;5116333;28;19923;-79
2022/05/02 07:34:26;;;;;;;;;;;;;;;;;;5117030;27;19938;-80
2022/05/02 07:36:52;;;;;;;;;;;;;;;;;;5106679;28;19920;-80
2022/05/02 07:39:21;;;;;;;;;;;;;;;;;;5095516;28;19982;-79
2022/05/02 07:41:48;;;;;;;;;;;;;;;;;;5094659;28;20018;-82
2022/05/02 07:44:14;;;;;;;;;;;;;;;;;;5094852;28;19920;-81
2022/05/02 07:46:45;;;;;;;;;;;;;;;;;;5094144;28;19961;-78
2022/05/02 07:49:13;;;;;;;;;;;;;;;;;;5095136;28;20321;-81
2022/05/02 07:51:47;;;;;;;;;;;;;;;;;;5094507;28;19924;-79
2022/05/02 07:54:20;;;;;;;;;;;;;;;;;;5095201;28;20010;-81
2022/05/02 07:56:46;;;;;;;;;;;;;;;;;;5094586;28;19919;-81
2022/05/02 07:59:14;;;;;;;;;;;;;;;;;;5094906;28;19981;-82
2022/05/02 08:01:39;;;;;;;;;;;;;;;;;;5094060;28;19961;-79
2022/05/02 08:04:05;;;;;;;;;;;;;;;;;;5097351;28;19920;-80
2022/05/02 08:06:33;;;;;;;;;;;;;;;;;;5096288;28;19916;-82
2022/05/02 08:09:14;;;;;;;;;;;;;;;;;;5093820;28;19916;-80
2022/05/02 08:11:39;;;;;;;;;;;;;;;;;;5093623;28;19916;-82
2022/05/02 08:14:05;;;;;;;;;;;;;;;;;;5094819;28;19916;-80
2022/05/02 08:16:32;;;;;;;;;;;;;;;;;;5094312;28;19923;-80
2022/05/02 08:18:58;;;;;;;;;;;;;;;;;;5093817;28;20330;-81
2022/05/02 08:21:32;;;;;;;;;;;;;;;;;;5093492;28;19916;-79
2022/05/02 08:29:38;;;;;;;;;;;;;;;;;;5093949;28;19923;-81
2022/05/02 08:32:12;;;;;;;;;;;;;;;;;;5093572;28;20299;-78
2022/05/02 08:34:38;;;;;;;;;;;;;;;;;;5094353;28;20279;-80
2022/05/02 08:37:11;;;;;;;;;;;;;;;;;;5093991;28;19916;-79
2022/05/02 08:40:02;;;;;;;;;;;;;;;;;;5093745;28;19920;-79
2022/05/02 08:42:49;;;;;;;;;;;;;;;;;;5088229;28;19969;-79
2022/05/02 08:45:18;;;;;;;;;;;;;;;;;;5093643;28;19916;-80
2022/05/02 08:47:49;;;;;;;;;;;;;;;;;;5093767;28;19927;-80
2022/05/02 08:50:17;;;;;;;;;;;;;;;;;;5092349;28;20295;-79
2022/05/02 08:52:47;;;;;;;;;;;;;;;;;;5097738;28;20397;-80
2022/05/02 08:55:18;;;;;;;;;;;;;;;;;;5114036;28;19912;-80
2022/05/02 08:57:56;;;;;;;;;;;;;;;;;;5106314;28;19920;-79
2022/05/02 09:00:27;;;;;;;;;;;;;;;;;;5096985;28;19978;-79
2022/05/02 09:02:53;;;;;;;;;;;;;;;;;;5100733;28;19916;-81
2022/05/02 09:05:37;;;;;;;;;;;;;;;;;;5097113;28;20023;-80
2022/05/02 09:08:08;;;;;;;;;;;;;;;;;;5105886;28;20290;-79
2022/05/02 09:10:54;;;;;;;;;;;;;;;;;;5100993;28;20372;-80
2022/05/02 09:13:41;;;;;;;;;;;;;;;;;;5093336;28;19924;-80
2022/05/02 09:16:16;;;;;;;;;;;;;;;;;;5093406;28;19917;-80
2022/05/02 09:18:42;;;;;;;;;;;;;;;;;;5093340;28;19920;-80
2022/05/02 09:21:21;;;;;;;;;;;;;;;;;;5091896;28;20390;-81
2022/05/02 09:23:52;;;;;;;;;;;;;;;;;;5094466;28;20358;-80
2022/05/02 09:26:36;;;;;;;;;;;;;;;;;;5094507;28;19946;-80
2022/05/02 09:29:19;;;;;;;;;;;;;;;;;;5097244;28;19920;-79
2022/05/02 09:31:45;;;;;;;;;;;;;;;;;;5093513;28;19923;-79
2022/05/02 09:34:17;;;;;;;;;;;;;;;;;;5093437;28;19916;-80
2022/05/02 09:36:44;;;;;;;;;;;;;;;;;;5094399;28;19922;-81
2022/05/02 09:39:12;;;;;;;;;;;;;;;;;;5093079;28;19939;-85
2022/05/02 09:41:37;;;;;;;;;;;;;;;;;;5092592;28;19922;-78
2022/05/02 09:50:22;;;;;;;;;;;;;;;;;;5105731;28;20416;-81
2022/05/02 09:53:02;;;;;;;;;;;;;;;;;;5101008;28;19959;-84
2022/05/02 09:58:14;;;;;;;;;;;;;;;;;;5101893;28;20398;-78
2022/05/02 10:03:35;;;;;;;;;;;;;;;;;;5095952;28;19926;-80
2022/05/02 10:06:04;;;;;;;;;;;;;;;;;;5095034;28;19916;-81
2022/05/02 10:08:32;;;;;;;;;;;;;;;;;;5095459;28;19927;-80
2022/05/02 10:11:13;;;;;;;;;;;;;;;;;;5095020;28;20375;-84
2022/05/02 10:13:51;;;;;;;;;;;;;;;;;;5096221;28;20359;-80
2022/05/02 10:16:33;;;;;;;;;;;;;;;;;;5096447;28;19934;-80
2022/05/02 10:19:08;;;;;;;;;;;;;;;;;;5096266;28;19938;-80
2022/05/02 10:21:37;;;;;;;;;;;;;;;;;;5096546;28;19916;-81
2022/05/02 10:24:23;;;;;;;;;;;;;;;;;;5097538;28;19920;-80
2022/05/02 10:26:55;;;;;;;;;;;;;;;;;;5096211;28;19916;-81
2022/05/02 10:29:25;;;;;;;;;;;;;;;;;;5096077;28;19920;-80
2022/05/02 10:31:57;;;;;;;;;;;;;;;;;;5095973;28;19916;-80
2022/05/02 10:34:24;;;;;;;;;;;;;;;;;;5094705;28;19927;-80
2022/05/02 10:36:50;;;;;;;;;;;;;;;;;;5113957;28;19961;-80
2022/05/02 10:39:48;;;;;;;;;;;;;;;;;;5116538;28;20283;-78
2022/05/02 10:42:17;;;;;;;;;;;;;;;;;;5103104;28;20298;-77
2022/05/02 10:44:45;;;;;;;;;;;;;;;;;;5115968;27;19924;-79
2022/05/02 10:47:11;;;;;;;;;;;;;;;;;;5116097;28;19923;-79
2022/05/02 10:49:55;;;;;;;;;;;;;;;;;;5116051;28;20395;-81
2022/05/02 10:52:25;;;;;;;;;;;;;;;;;;5114429;28;19916;-79
2022/05/02 10:54:55;;;;;;;;;;;;;;;;;;5116367;28;19984;-79
2022/05/02 10:57:31;;;;;;;;;;;;;;;;;;5115270;28;19915;-80
2022/05/02 11:00:03;;;;;;;;;;;;;;;;;;5116238;28;20025;-80
2022/05/02 11:02:41;;;;;;;;;;;;;;;;;;5115426;28;19922;-80
2022/05/02 11:05:16;;;;;;;;;;;;;;;;;;5115982;28;19968;-79
2022/05/02 11:07:44;;;;;;;;;;;;;;;;;;5114296;27;19930;-82
2022/05/02 11:10:11;;;;;;;;;;;;;;;;;;5115949;28;20260;-79
2022/05/02 11:12:55;;;;;;;;;;;;;;;;;;5115581;28;19983;-81
2022/05/02 11:15:25;;;;;;;;;;;;;;;;;;5115690;28;19916;-80
2022/05/02 11:18:09;;;;;;;;;;;;;;;;;;5116459;28;20290;-78
2022/05/02 11:21:10;;;;;;;;;;;;;;;;;;5116637;28;19922;-80
2022/05/02 11:24:02;;;;;;;;;;;;;;;;;;5099570;28;19916;-80
2022/05/02 11:26:43;;;;;;;;;;;;;;;;;;5115424;28;19961;-79
2022/05/02 11:29:14;;;;;;;;;;;;;;;;;;5116445;28;20375;-79
2022/05/02 11:31:53;;;;;;;;;;;;;;;;;;5115877;28;20318;-80
2022/05/02 11:34:27;;;;;;;;;;;;;;;;;;5115326;27;20019;-79
2022/05/02 11:36:54;;;;;;;;;;;;;;;;;;5115578;28;19920;-80
2022/05/02 11:39:23;;;;;;;;;;;;;;;;;;5115060;28;20367;-80
2022/05/02 11:41:50;;;;;;;;;;;;;;;;;;5115140;28;19937;-81
2022/05/02 11:44:16;;;;;;;;;;;;;;;;;;5114323;28;19944;-80
2022/05/02 11:46:55;;;;;;;;;;;;;;;;;;5115230;28;20355;-81
2022/05/02 11:49:20;;;;;;;;;;;;;;;;;;5115531;28;20375;-80
2022/05/02 11:51:50;;;;;;;;;;;;;;;;;;5114776;28;19925;-78
2022/05/02 11:54:27;;;;;;;;;;;;;;;;;;5114853;27;20014;-81
2022/05/02 11:56:58;;;;;;;;;;;;;;;;;;5115073;27;19968;-85
2022/05/02 11:59:29;;;;;;;;;;;;;;;;;;5114533;28;20321;-81
2022/05/02 12:02:01;;;;;;;;;;;;;;;;;;5098435;28;19985;-80
2022/05/02 12:04:29;;;;;;;;;;;;;;;;;;5093606;28;19948;-81
2022/05/02 12:07:01;;;;;;;;;;;;;;;;;;5094203;28;19920;-79
2022/05/02 12:09:29;;;;;;;;;;;;;;;;;;5094312;28;20366;-79
2022/05/02 12:11:56;;;;;;;;;;;;;;;;;;5094386;28;19916;-81
2022/05/02 12:14:21;;;;;;;;;;;;;;;;;;5094464;28;19916;-81
2022/05/02 12:17:05;;;;;;;;;;;;;;;;;;5094459;28;20002;-81
2022/05/02 12:19:31;;;;;;;;;;;;;;;;;;5106522;28;19920;-80
2022/05/02 12:21:57;;;;;;;;;;;;;;;;;;5114174;28;20006;-83
2022/05/02 12:24:29;;;;;;;;;;;;;;;;;;5097130;28;19959;-81
2022/05/02 12:26:56;;;;;;;;;;;;;;;;;;5099024;28;19916;-80
2022/05/02 12:29:22;;;;;;;;;;;;;;;;;;5095366;28;19939;-80
2022/05/02 12:32:01;;;;;;;;;;;;;;;;;;5110091;28;20394;-81
2022/05/02 12:34:36;;;;;;;;;;;;;;;;;;5094185;28;19916;-79
2022/05/02 12:37:04;;;;;;;;;;;;;;;;;;5126941;27;19927;-84
2022/05/02 12:39:36;;;;;;;;;;;;;;;;;;5093697;28;20014;-80
2022/05/02 12:42:01;;;;;;;;;;;;;;;;;;5093628;28;19924;-80
2022/05/02 12:44:36;;;;;;;;;;;;;;;;;;5092941;28;19921;-83
2022/05/02 12:47:05;;;;;;;;;;;;;;;;;;5093768;28;19931;-84
2022/05/02 12:49:38;;;;;;;;;;;;;;;;;;5092920;28;20482;-79
2022/05/02 12:52:03;;;;;;;;;;;;;;;;;;5093562;28;19916;-80
2022/05/02 12:54:30;;;;;;;;;;;;;;;;;;5111570;28;20010;-81
2022/05/02 13:02:53;;;;;;;;;;;;;;;;;;5115444;28;19925;-84
2022/05/02 13:05:24;;;;;;;;;;;;;;;;;;5113899;28;19920;-82
2022/05/02 13:07:50;;;;;;;;;;;;;;;;;;5113624;28;20372;-81
2022/05/02 13:10:21;;;;;;;;;;;;;;;;;;5115288;28;19961;-79
2022/05/02 13:13:12;;;;;;;;;;;;;;;;;;5112826;28;19923;-80
2022/05/02 13:15:41;;;;;;;;;;;;;;;;;;5115306;28;20398;-82
2022/05/02 13:18:08;;;;;;;;;;;;;;;;;;5114496;28;19922;-82
2022/05/02 13:20:34;;;;;;;;;;;;;;;;;;5117671;28;20007;-80
2022/05/02 13:23:04;;;;;;;;;;;;;;;;;;5116886;28;19967;-82
2022/05/02 13:25:48;;;;;;;;;;;;;;;;;;5117849;28;20362;-82
2022/05/02 13:28:18;;;;;;;;;;;;;;;;;;5117972;28;19915;-80
2022/05/02 13:30:49;;;;;;;;;;;;;;;;;;5118627;28;20452;-83
2022/05/02 13:33:15;;;;;;;;;;;;;;;;;;5116789;28;19923;-84
2022/05/02 13:35:41;;;;;;;;;;;;;;;;;;5117432;28;20371;-81
2022/05/02 13:38:11;;;;;;;;;;;;;;;;;;5117844;28;19923;-83
2022/05/02 13:41:03;;;;;;;;;;;;;;;;;;5117355;28;19923;-80
2022/05/02 13:43:36;;;;;;;;;;;;;;;;;;5116722;28;19972;-79
2022/05/02 13:46:08;;;;;;;;;;;;;;;;;;5117472;28;19931;-81
2022/05/02 13:48:40;;;;;;;;;;;;;;;;;;5116176;28;20011;-82
2022/05/02 13:51:19;;;;;;;;;;;;;;;;;;5117092;28;19918;-80
2022/05/02 13:53:49;;;;;;;;;;;;;;;;;;5116127;28;19919;-81
2022/05/02 13:56:21;;;;;;;;;;;;;;;;;;5117145;28;19934;-84
2022/05/02 13:58:52;;;;;;;;;;;;;;;;;;5117400;28;19915;-80
2022/05/02 14:01:34;;;;;;;;;;;;;;;;;;5115801;28;19919;-80
2022/05/02 14:04:17;;;;;;;;;;;;;;;;;;5117984;27;20010;-80
2022/05/02 14:09:44;;;;;;;;;;;;;;;;;;5116989;28;19961;-83
2022/05/02 14:12:29;;;;;;;;;;;;;;;;;;5116703;28;19923;-82
2022/05/02 14:14:59;;;;;;;;;;;;;;;;;;5116375;28;19912;-81
2022/05/02 14:17:35;;;;;;;;;;;;;;;;;;5117691;28;20383;-90
2022/05/02 14:20:13;;;;;;;;;;;;;;;;;;5117513;28;19911;-80
2022/05/02 14:22:40;;;;;;;;;;;;;;;;;;5116783;28;19922;-80
2022/05/02 14:25:06;;;;;;;;;;;;;;;;;;5117128;28;19919;-80
2022/05/02 14:27:32;;;;;;;;;;;;;;;;;;5118331;28;19972;-80
2022/05/02 14:30:04;;;;;;;;;;;;;;;;;;5116756;28;20276;-80
2022/05/02 14:32:46;;;;;;;;;;;;;;;;;;5116968;28;20360;-80
2022/05/02 14:35:25;;;;;;;;;;;;;;;;;;5116873;28;20002;-81
2022/05/02 14:37:55;;;;;;;;;;;;;;;;;;5116031;27;20354;-81
2022/05/02 14:40:20;;;;;;;;;;;;;;;;;;5116149;28;20359;-79
2022/05/02 14:42:46;;;;;;;;;;;;;;;;;;5116165;28;19951;-80
2022/05/02 14:45:12;;;;;;;;;;;;;;;;;;5115690;28;19920;-80
2022/05/02 14:47:38;;;;;;;;;;;;;;;;;;5119004;28;19916;-81
2022/05/02 14:50:03;;;;;;;;;;;;;;;;;;5117321;28;19919;-78
2022/05/02 14:52:30;;;;;;;;;;;;;;;;;;5116121;28;20287;-81
2022/05/02 14:54:58;;;;;;;;;;;;;;;;;;5115870;27;20399;-81
2022/05/02 14:57:25;;;;;;;;;;;;;;;;;;5116058;28;19911;-79
2022/05/02 14:59:55;;;;;;;;;;;;;;;;;;5116388;28;19916;-81
2022/05/02 15:02:23;;;;;;;;;;;;;;;;;;5115738;28;19919;-78
2022/05/02 15:04:52;;;;;;;;;;;;;;;;;;5115490;28;19920;-80
2022/05/02 15:07:20;;;;;;;;;;;;;;;;;;5114439;28;20357;-81
2022/05/02 15:10:14;;;;;;;;;;;;;;;;;;5115738;28;19916;-82
2022/05/02 15:12:58;;;;;;;;;;;;;;;;;;5117548;28;19922;-81
2022/05/02 15:15:30;;;;;;;;;;;;;;;;;;5118606;28;20016;-79
2022/05/02 15:18:02;;;;;;;;;;;;;;;;;;5129113;28;19975;-79
2022/05/02 15:20:32;;;;;;;;;;;;;;;;;;5122333;27;20252;-80
2022/05/02 15:23:00;;;;;;;;;;;;;;;;;;5114893;28;20440;-79
2022/05/02 15:25:26;;;;;;;;;;;;;;;;;;5115457;28;19915;-79
2022/05/02 15:39:00;;;;;;;;;;;;;;;;;;5099917;28;19927;-81
2022/05/02 15:41:47;;;;;;;;;;;;;;;;;;5104890;28;19928;-81
2022/05/02 15:44:23;;;;;;;;;;;;;;;;;;5109569;28;19924;-80
2022/05/02 15:46:49;;;;;;;;;;;;;;;;;;5114290;28;19916;-79
2022/05/02 15:49:15;;;;;;;;;;;;;;;;;;5114238;28;19916;-80
2022/05/02 15:51:45;;;;;;;;;;;;;;;;;;5114269;28;19916;-78
2022/05/02 15:54:34;;;;;;;;;;;;;;;;;;5113935;28;19923;-79
2022/05/02 15:57:12;;;;;;;;;;;;;;;;;;5106361;28;19916;-79
2022/05/02 15:59:45;;;;;;;;;;;;;;;;;;5115060;28;19923;-80
2022/05/02 16:02:11;;;;;;;;;;;;;;;;;;5108311;28;19916;-79
2022/05/02 16:04:38;;;;;;;;;;;;;;;;;;5135748;27;19928;-82
2022/05/02 16:12:44;;;;;;;;;;;;;;;;;;5094349;28;19923;-79
2022/05/02 16:15:14;;;;;;;;;;;;;;;;;;5094170;28;20283;-83
2022/05/02 16:17:47;;;;;;;;;;;;;;;;;;5094144;28;20003;-81
2022/05/02 16:20:14;;;;;;;;;;;;;;;;;;5094546;28;19916;-77
2022/05/02 16:22:40;;;;;;;;;;;;;;;;;;5107057;28;19916;-79
2022/05/02 16:25:13;;;;;;;;;;;;;;;;;;5077190;28;20298;-80
2022/05/02 16:27:39;;;;;;;;;;;;;;;;;;5094072;28;20414;-79
2022/05/02 16:30:06;;;;;;;;;;;;;;;;;;5108534;28;19916;-79
2022/05/02 16:32:36;;;;;;;;;;;;;;;;;;5113659;28;20046;-78
2022/05/02 16:35:06;;;;;;;;;;;;;;;;;;5113909;28;19920;-79
2022/05/02 16:37:34;;;;;;;;;;;;;;;;;;5113048;28;20010;-81
2022/05/02 16:39:59;;;;;;;;;;;;;;;;;;5114608;28;19915;-78
2022/05/02 16:42:26;;;;;;;;;;;;;;;;;;5114081;28;19916;-81
2022/05/02 16:44:51;;;;;;;;;;;;;;;;;;5113760;28;19920;-81
2022/05/02 16:47:17;;;;;;;;;;;;;;;;;;5114269;28;20249;-83
2022/05/02 16:49:43;;;;;;;;;;;;;;;;;;5114267;28;20291;-81
2022/05/02 16:52:13;;;;;;;;;;;;;;;;;;5114102;28;19923;-81
2022/05/02 16:54:44;;;;;;;;;;;;;;;;;;5113196;28;19916;-79
2022/05/02 16:57:10;;;;;;;;;;;;;;;;;;5113998;28;20000;-81
2022/05/02 16:59:37;;;;;;;;;;;;;;;;;;5113871;28;19943;-78
2022/05/02 17:02:02;;;;;;;;;;;;;;;;;;5113886;28;19920;-80
2022/05/02 17:04:28;;;;;;;;;;;;;;;;;;5097516;28;19920;-83
2022/05/02 17:07:00;;;;;;;;;;;;;;;;;;5092748;28;20275;-87
2022/05/02 17:09:27;;;;;;;;;;;;;;;;;;5096109;28;19927;-82
2022/05/02 17:11:52;;;;;;;;;;;;;;;;;;5087918;28;19920;-81
2022/05/02 17:14:18;;;;;;;;;;;;;;;;;;5088157;28;19927;-81
2022/05/02 17:16:44;;;;;;;;;;;;;;;;;;5086965;28;20462;-81
2022/05/02 17:19:16;;;;;;;;;;;;;;;;;;5091628;28;19920;-80
2022/05/02 17:21:44;;;;;;;;;;;;;;;;;;5093155;28;19920;-81
2022/05/02 17:24:10;;;;;;;;;;;;;;;;;;5088910;28;19920;-84
2022/05/02 17:27:02;;;;;;;;;;;;;;;;;;5086831;28;20279;-82
2022/05/02 17:29:31;;;;;;;;;;;;;;;;;;5084346;28;20394;-82
2022/05/02 17:31:57;;;;;;;;;;;;;;;;;;5099469;28;19978;-82
2022/05/02 17:34:24;;;;;;;;;;;;;;;;;;5088385;28;19920;-84
2022/05/02 17:36:53;;;;;;;;;;;;;;;;;;5086393;28;19990;-81
2022/05/02 17:39:32;;;;;;;;;;;;;;;;;;5088164;28;20034;-81
2022/05/02 17:41:58;;;;;;;;;;;;;;;;;;5090381;28;19920;-82
2022/05/02 17:44:24;;;;;;;;;;;;;;;;;;5089823;28;19920;-84
2022/05/02 17:46:54;;;;;;;;;;;;;;;;;;5091475;28;19920;-83
2022/05/02 17:49:20;;;;;;;;;;;;;;;;;;5086887;28;19916;-81
2022/05/02 17:51:52;;;;;;;;;;;;;;;;;;5091386;28;19973;-82
2022/05/02 17:54:18;;;;;;;;;;;;;;;;;;5092310;28;19989;-85
2022/05/02 17:56:43;;;;;;;;;;;;;;;;;;5090783;28;20372;-83
2022/05/02 17:59:13;;;;;;;;;;;;;;;;;;5092581;28;19919;-82
2022/05/02 18:01:38;;;;;;;;;;;;;;;;;;5089657;28;19969;-82